Fort Lee, NJ (07024)

6:39 AM EST on February 23, 2017 (GMT -0500)
Palisades Park | | Change Station
Active Advisory: Special Statement

Elev 115 ft 40.84 °N, 74.00 °W | Updated 50 seconds ago

Clear
Clear
40.2 °F
Feels Like 40 °F
N
0.0
Wind Variable Wind from SE

Today
High -- | Low -- °F
--% Chance of Precip.
Yesterday
High -- | Low -- °F
Precip. -- in
Pressure 29.88 in
Visibility 10.0 miles
Clouds Clear
Windchill 40 °F
Dew Point 37 °F
Humidity 88%
Rainfall 0.00 in
Snow Depth Not available.
6:38 AM 5:40 PM
Waning Crescent, 11% visible
METAR KTEB 231051Z 00000KT 10SM CLR 05/03 A2988 RMK AO2 SLP118 T00500028
Pressure 29.88 in
Visibility 10.0 miles
Clouds Clear
Windchill 40 °F
Dew Point 37 °F
Humidity 88%
Rainfall 0.00 in
Snow Depth Not available.
6:38 AM 5:40 PM
Waning Crescent, 11% visible
METAR KTEB 231051Z 00000KT 10SM CLR 05/03 A2988 RMK AO2 SLP118 T00500028

Get Your Daily Forecast Email!

Thanks for signing up!

Be on the lookout for a verification email in your inbox.

You'll start receiving the daily forecast at 8 AM.

×

10-Day Weather Forecast

Almanac

Astronomy

Feb. 23, 2017 Rise Set
Actual Time
Civil Twilight
Nautical Twilight
Astronomical Twilight
Moon
Length of Visible Light
Length of Day
Tomorrow will be .
, % of the Moon is Illuminated

Today's Extremes

State Highs State Lows

Community

WunderPhotos

Upload Photos

1,962,540 photos uploaded!

WunderBlog® & News

Nearby

Air Quality

  Air Quality AQ Index Pollutant
Not available.

Snow Depth

Station Depth Elevation

Earthquake Activity

City Distance Mag. Time & Date
Minimum magnitude displayed is 2.5.

Coastal Water Temperatures

Place Temperature

Stations

Nearby Weather Stations

Station Location Temp. Windchill Dew Point Humidity Wind Precip. Elev Updated Type
                   

Watches & Warnings

Special Statement
Issued: 5:57 AM EST Feb. 23, 2017 – National Weather Service

Areas of fog will overspread the region early this morning... which
could be locally dense with visibilities reduce to 1/4 mile or
less during the morning rush.

Motorists should be alert for rapidly reduced visibilities this
morning. If driving... slow down... use your low beam
headlights... and leave plenty of distance ahead of you in case a
sudden stop is needed.

Visibilities should improve by mid-morning.